Time;durP1;ratioP1;P1;durP2;ratioP2;P2;SDS_P1;SDS_P2;PMS_P1;PMS_P2;Temp;Humidity;BMP_temperature;BMP_pressure;BME280_temperature;BME280_humidity;BME280_pressure;Samples;Min_cycle;Max_cycle;Signal;HPM_P1;HPM_P2
2022/01/11 00:00:57;;;;;;;155.40;35.83;;;;;;;-0.85;100.00;102989.59;5307440;28;20057;-84
2022/01/11 00:03:29;;;;;;;161.73;33.67;;;;;;;-0.94;100.00;103002.81;5325784;28;20074;-83
2022/01/11 00:06:15;;;;;;;141.30;31.20;;;;;;;-0.89;100.00;103011.50;5327026;27;20052;-84
2022/01/11 00:08:48;;;;;;;139.20;35.33;;;;;;;-0.87;100.00;103017.59;5325004;28;20070;-83
2022/01/11 00:11:19;;;;;;;133.93;36.78;;;;;;;-0.88;100.00;103028.06;5322857;28;20028;-83
2022/01/11 00:13:51;;;;;;;136.68;32.22;;;;;;;-0.88;100.00;103041.19;5320830;28;20214;-83
2022/01/11 00:16:23;;;;;;;172.65;31.55;;;;;;;-0.97;100.00;103029.88;5324779;28;20027;-83
2022/01/11 00:18:54;;;;;;;174.43;32.80;;;;;;;-0.94;100.00;103033.38;5323422;28;20029;-83
2022/01/11 00:21:25;;;;;;;174.48;34.88;;;;;;;-0.93;100.00;103028.09;5325374;28;20055;-83
2022/01/11 00:26:46;;;;;;;187.70;36.75;;;;;;;-1.02;100.00;103028.19;5325130;28;20114;-83
2022/01/11 00:29:17;;;;;;;171.05;38.65;;;;;;;-1.03;100.00;103021.25;5325411;28;20555;-83
2022/01/11 00:31:49;;;;;;;161.50;33.50;;;;;;;-1.00;100.00;103024.69;5325154;28;20039;-83
2022/01/11 00:34:23;;;;;;;153.05;35.60;;;;;;;-0.97;100.00;103022.03;5321721;28;20032;-83
2022/01/11 00:36:54;;;;;;;177.70;36.97;;;;;;;-1.00;100.00;103014.22;5324877;28;20131;-83
2022/01/11 00:39:25;;;;;;;137.43;34.30;;;;;;;-0.97;100.00;103011.56;5324777;28;20459;-83
2022/01/11 00:41:58;;;;;;;117.20;33.30;;;;;;;-0.87;100.00;103025.44;5324859;27;20497;-83
2022/01/11 00:44:29;;;;;;;126.65;35.83;;;;;;;-0.86;100.00;103021.94;5325419;28;20275;-83
2022/01/11 00:47:01;;;;;;;144.93;40.25;;;;;;;-0.78;100.00;103027.09;5325081;28;20031;-84
2022/01/11 00:49:33;;;;;;;136.10;35.50;;;;;;;-0.84;100.00;103012.31;5325895;28;20035;-83
2022/01/11 00:52:05;;;;;;;140.05;39.35;;;;;;;-0.83;100.00;103021.03;5325156;28;20052;-84
2022/01/11 00:54:37;;;;;;;141.30;35.90;;;;;;;-0.78;100.00;103019.25;5325907;28;20502;-84
2022/01/11 00:57:08;;;;;;;149.40;36.85;;;;;;;-0.82;100.00;103020.16;5325886;28;20099;-83
2022/01/11 00:59:39;;;;;;;134.27;35.55;;;;;;;-0.80;100.00;103024.50;5326878;28;20024;-83
2022/01/11 01:02:11;;;;;;;128.45;35.08;;;;;;;-0.77;100.00;103015.75;5326810;28;20052;-84
2022/01/11 01:04:42;;;;;;;155.70;41.55;;;;;;;-0.87;100.00;103017.59;5326596;27;20056;-83
2022/01/11 01:07:13;;;;;;;121.93;35.78;;;;;;;-0.81;100.00;103020.16;5327316;28;20024;-83
2022/01/11 01:09:58;;;;;;;134.82;38.38;;;;;;;-0.73;100.00;103024.44;5333933;28;20024;-82
2022/01/11 01:12:29;;;;;;;122.78;34.95;;;;;;;-0.80;100.00;103026.25;5346471;28;20020;-83
2022/01/11 01:15:01;;;;;;;123.80;34.35;;;;;;;-0.77;100.00;103031.47;5340307;28;20036;-83
2022/01/11 01:17:33;;;;;;;133.25;37.03;;;;;;;-0.81;100.00;103032.38;5320668;28;20022;-83
2022/01/11 01:20:05;;;;;;;127.30;35.30;;;;;;;-0.78;100.00;103032.34;5305786;28;20471;-84
2022/01/11 01:22:37;;;;;;;135.95;36.33;;;;;;;-0.78;100.00;103034.97;5324441;28;20479;-84
2022/01/11 01:25:09;;;;;;;126.03;35.20;;;;;;;-0.77;100.00;103029.72;5324356;28;20024;-84
2022/01/11 01:27:40;;;;;;;130.50;34.28;;;;;;;-0.75;100.00;103029.69;5323572;28;20051;-83
2022/01/11 01:30:12;;;;;;;124.18;36.17;;;;;;;-0.73;100.00;103027.06;5323926;28;20067;-84
2022/01/11 01:32:44;;;;;;;130.88;35.45;;;;;;;-0.72;100.00;103026.16;5305732;28;20028;-84
2022/01/11 01:35:18;;;;;;;128.02;36.53;;;;;;;-0.77;100.00;103019.22;5324009;28;20020;-84
2022/01/11 01:37:49;;;;;;;120.13;35.35;;;;;;;-0.70;100.00;103027.91;5323691;28;20051;-84
2022/01/11 01:40:20;;;;;;;126.88;33.90;;;;;;;-0.70;100.00;103027.91;5321890;28;20032;-84
2022/01/11 01:42:52;;;;;;;121.28;37.50;;;;;;;-0.76;100.00;103028.81;5324483;28;20040;-83
2022/01/11 01:45:24;;;;;;;115.22;35.38;;;;;;;-0.72;100.00;103032.25;5305524;27;20024;-84
2022/01/11 01:47:57;;;;;;;124.72;35.58;;;;;;;-0.79;100.00;103033.22;5322519;28;20028;-84
2022/01/11 01:50:30;;;;;;;121.57;38.13;;;;;;;-0.81;100.00;103032.38;5324248;28;20039;-84
2022/01/11 01:53:04;;;;;;;109.22;34.30;;;;;;;-0.80;100.00;103023.63;5323034;28;20491;-84
2022/01/11 01:55:35;;;;;;;116.97;36.15;;;;;;;-0.76;100.00;103026.19;5323780;28;20028;-84
2022/01/11 01:58:07;;;;;;;107.55;33.78;;;;;;;-0.72;100.00;103034.88;5305372;28;20031;-84
2022/01/11 02:00:46;;;;;;;113.72;34.45;;;;;;;-0.78;100.00;103032.34;5323175;28;20031;-83
2022/01/11 02:03:25;;;;;;;99.57;33.13;;;;;;;-0.79;100.00;103035.84;5323368;28;20031;-84
2022/01/11 02:05:57;;;;;;;103.38;33.13;;;;;;;-0.80;100.00;103039.34;5321498;27;20044;-84
2022/01/11 02:08:29;;;;;;;95.80;32.38;;;;;;;-0.79;100.00;103041.06;5323125;28;20369;-84
2022/01/11 02:11:00;;;;;;;96.65;32.15;;;;;;;-0.89;100.00;103032.47;5304595;28;20871;-84
2022/01/11 02:13:32;;;;;;;99.07;30.75;;;;;;;-0.89;100.00;103040.31;5323657;28;20023;-84
2022/01/11 02:16:04;;;;;;;97.80;31.33;;;;;;;-0.84;100.00;103049.00;5323242;28;20035;-84
2022/01/11 02:18:35;;;;;;;99.90;34.33;;;;;;;-0.84;100.00;103045.50;5305547;28;20138;-84
2022/01/11 02:21:07;;;;;;;102.50;34.55;;;;;;;-0.88;100.00;103055.13;5319375;28;20547;-84
2022/01/11 02:23:39;;;;;;;95.60;31.90;;;;;;;-0.88;100.00;103064.75;5323620;28;20028;-84
2022/01/11 02:26:11;;;;;;;101.40;31.75;;;;;;;-0.89;100.00;103068.28;5322988;28;20073;-84
2022/01/11 02:28:42;;;;;;;91.82;31.25;;;;;;;-0.91;100.00;103073.53;5323054;28;20265;-84
2022/01/11 02:31:14;;;;;;;94.10;32.72;;;;;;;-0.89;100.00;103071.75;5322640;28;20056;-84
2022/01/11 02:33:49;;;;;;;99.97;33.70;;;;;;;-0.91;100.00;103062.16;5322076;28;20140;-83
2022/01/11 02:36:27;;;;;;;89.78;29.67;;;;;;;-0.86;100.00;103058.63;5321874;28;20028;-83
2022/01/11 02:38:59;;;;;;;96.32;31.98;;;;;;;-0.87;100.00;103069.13;5321667;28;20375;-83
2022/01/11 02:41:31;;;;;;;89.95;31.90;;;;;;;-0.89;100.00;103074.38;5323623;28;20039;-83
2022/01/11 02:44:04;;;;;;;103.97;34.65;;;;;;;-0.93;100.00;103083.13;5321755;28;20024;-84
2022/01/11 02:46:35;;;;;;;88.13;32.20;;;;;;;-0.90;100.00;103077.88;5322473;28;20093;-84
2022/01/11 02:49:06;;;;;;;95.45;32.50;;;;;;;-0.95;100.00;103071.81;5323539;28;20020;-84
2022/01/11 02:51:38;;;;;;;95.93;32.47;;;;;;;-0.90;100.00;103071.78;5323372;28;20035;-84
2022/01/11 02:54:09;;;;;;;97.80;31.80;;;;;;;-0.86;100.00;103081.34;5322944;28;20028;-84
2022/01/11 02:56:41;;;;;;;97.50;31.95;;;;;;;-0.86;100.00;103089.19;5305251;28;20035;-84
2022/01/11 02:59:12;;;;;;;89.53;32.35;;;;;;;-0.88;100.00;103091.81;5325841;28;20032;-84
2022/01/11 03:01:43;;;;;;;97.25;32.80;;;;;;;-0.93;100.00;103085.75;5326870;28;20099;-84
2022/01/11 03:04:15;;;;;;;103.10;35.15;;;;;;;-0.89;100.00;103097.97;5326324;27;20040;-84
2022/01/11 03:06:46;;;;;;;104.90;33.60;;;;;;;-0.88;100.00;103091.81;5326783;28;20042;-83
2022/01/11 03:09:17;;;;;;;96.03;34.33;;;;;;;-0.84;100.00;103095.28;5322923;28;20024;-84
2022/01/11 03:11:49;;;;;;;92.88;32.83;;;;;;;-0.87;100.00;103093.56;5308153;28;20055;-84
2022/01/11 03:14:20;;;;;;;94.65;33.95;;;;;;;-0.90;100.00;103082.25;5307660;28;20118;-84
2022/01/11 03:16:51;;;;;;;92.85;33.00;;;;;;;-0.92;100.00;103086.66;5326873;28;20024;-84
2022/01/11 03:19:22;;;;;;;99.88;34.60;;;;;;;-0.90;100.00;103098.84;5327086;28;20023;-84
2022/01/11 03:21:54;;;;;;;85.80;34.53;;;;;;;-1.02;100.00;103097.19;5307924;28;20028;-84
2022/01/11 03:24:25;;;;;;;85.22;31.13;;;;;;;-1.00;100.00;103089.31;5326422;28;20031;-84
2022/01/11 03:26:56;;;;;;;86.22;32.63;;;;;;;-0.98;100.00;103091.06;5326353;28;20024;-84
2022/01/11 03:29:28;;;;;;;92.30;32.20;;;;;;;-1.00;100.00;103095.44;5326598;28;20434;-84
2022/01/11 03:31:59;;;;;;;87.00;31.67;;;;;;;-1.00;100.00;103089.31;5326587;28;20498;-84
2022/01/11 03:34:31;;;;;;;85.90;30.55;;;;;;;-1.06;100.00;103078.91;5307652;28;20480;-84
2022/01/11 03:37:02;;;;;;;89.60;34.03;;;;;;;-1.04;100.00;103087.59;5326161;28;20033;-84
2022/01/11 03:39:33;;;;;;;90.30;32.55;;;;;;;-1.00;100.00;103076.22;5307332;28;20016;-83
2022/01/11 03:42:05;;;;;;;87.40;32.33;;;;;;;-1.08;100.00;103088.53;5326407;28;20039;-84
2022/01/11 03:44:36;;;;;;;88.70;31.27;;;;;;;-1.07;100.00;103080.66;5326291;28;20027;-84
2022/01/11 03:47:08;;;;;;;87.82;33.28;;;;;;;-1.05;100.00;103084.13;5326233;28;20024;-84
2022/01/11 03:49:39;;;;;;;88.68;32.63;;;;;;;-1.11;100.00;103078.06;5326538;28;20038;-84
2022/01/11 03:52:11;;;;;;;93.68;34.95;;;;;;;-1.13;100.00;103079.84;5325950;28;20043;-84
2022/01/11 03:55:04;;;;;;;92.40;34.15;;;;;;;-1.06;100.00;103077.13;5325033;28;20059;-83
2022/01/11 03:57:33;;;;;;;86.72;31.63;;;;;;;-1.14;100.00;103076.31;5322000;28;20044;-84
2022/01/11 04:00:12;;;;;;;94.15;35.15;;;;;;;-1.10;100.00;103090.28;5324713;28;20019;-84
2022/01/11 04:02:44;;;;;;;86.38;33.88;;;;;;;-1.17;100.00;103087.69;5319365;28;20496;-84
2022/01/11 04:05:15;;;;;;;83.38;33.13;;;;;;;-1.25;100.00;103081.66;5325074;27;20055;-84
2022/01/11 04:07:47;;;;;;;83.03;33.83;;;;;;;-1.30;100.00;103083.44;5319745;28;20032;-84
2022/01/11 04:10:18;;;;;;;81.00;31.55;;;;;;;-1.29;100.00;103085.19;5324261;27;20028;-83
2022/01/11 04:12:50;;;;;;;88.80;32.60;;;;;;;-1.31;100.00;103089.56;5326264;28;20427;-83
2022/01/11 04:15:22;;;;;;;83.13;32.30;;;;;;;-1.41;100.00;103083.50;5325350;28;20032;-84
2022/01/11 04:17:53;;;;;;;86.80;31.70;;;;;;;-1.34;100.00;103108.75;5325501;28;20035;-83
2022/01/11 04:20:24;;;;;;;88.82;32.40;;;;;;;-1.34;100.00;103097.44;5325900;28;20039;-84
2022/01/11 04:22:56;;;;;;;90.30;33.80;;;;;;;-1.36;100.00;103097.44;5326143;28;20028;-84
2022/01/11 04:25:27;;;;;;;77.72;30.73;;;;;;;-1.32;100.00;103090.44;5326009;28;20161;-84
2022/01/11 04:27:59;;;;;;;87.45;32.08;;;;;;;-1.38;100.00;103091.34;5325659;28;20383;-84
2022/01/11 04:30:31;;;;;;;85.63;32.75;;;;;;;-1.31;100.00;103101.78;5305932;28;20024;-84
2022/01/11 04:33:02;;;;;;;80.22;30.48;;;;;;;-1.30;100.00;103107.00;5326225;28;20078;-83
2022/01/11 04:35:34;;;;;;;80.32;29.92;;;;;;;-1.35;100.00;103107.03;5325931;28;20099;-84
2022/01/11 04:38:05;;;;;;;80.07;31.05;;;;;;;-1.40;100.00;103118.44;5325726;28;20039;-84
2022/01/11 04:40:36;;;;;;;83.97;32.92;;;;;;;-1.39;100.00;103110.53;5305431;28;20385;-84
2022/01/11 04:43:08;;;;;;;80.53;30.73;;;;;;;-1.39;100.00;103110.53;5325588;28;20424;-84
2022/01/11 04:45:39;;;;;;;86.07;33.20;;;;;;;-1.43;100.00;103114.06;5306155;28;20081;-84
2022/01/11 04:48:11;;;;;;;78.75;31.50;;;;;;;-1.46;100.00;103107.97;5325769;28;20035;-84
2022/01/11 04:50:43;;;;;;;86.25;29.80;;;;;;;-1.54;100.00;103106.28;5324919;28;20428;-84
2022/01/11 04:53:14;;;;;;;79.88;32.03;;;;;;;-1.53;100.00;103109.75;5325237;28;20028;-83
2022/01/11 04:55:45;;;;;;;80.03;32.05;;;;;;;-1.62;100.00;103107.19;5306381;28;20044;-84
2022/01/11 04:58:18;;;;;;;85.47;33.33;;;;;;;-1.61;100.00;103107.19;5324946;28;20353;-84
2022/01/11 05:00:50;;;;;;;84.35;32.13;;;;;;;-1.65;100.00;103101.97;5306383;28;20031;-84
2022/01/11 05:03:21;;;;;;;87.78;34.50;;;;;;;-1.71;100.00;103101.13;5304846;28;20070;-83
2022/01/11 05:05:52;;;;;;;84.45;31.40;;;;;;;-1.76;100.00;103096.81;5323851;27;20476;-83
2022/01/11 05:08:24;;;;;;;83.55;31.90;;;;;;;-1.75;100.00;103104.66;5322273;28;20020;-84
2022/01/11 05:10:55;;;;;;;83.10;32.25;;;;;;;-1.77;100.00;103100.28;5323815;28;20478;-84
2022/01/11 05:13:27;;;;;;;83.72;33.28;;;;;;;-1.78;100.00;103101.19;5306940;27;20097;-83
2022/01/11 05:15:59;;;;;;;91.03;33.17;;;;;;;-1.83;100.00;103092.47;5324214;28;20472;-84
2022/01/11 05:18:31;;;;;;;93.50;35.65;;;;;;;-1.87;100.00;103090.78;5321938;28;20420;-84
2022/01/11 05:21:04;;;;;;;98.75;34.42;;;;;;;-1.88;100.00;103099.47;5320990;28;20042;-83
2022/01/11 05:23:35;;;;;;;98.20;36.03;;;;;;;-1.85;100.00;103105.56;5323244;28;20543;-83
2022/01/11 05:26:07;;;;;;;99.60;34.85;;;;;;;-1.85;100.00;103094.25;5322191;28;20030;-84
2022/01/11 05:28:38;;;;;;;99.95;35.35;;;;;;;-1.95;100.00;103080.31;5324251;28;20376;-83
2022/01/11 05:31:10;;;;;;;107.00;37.42;;;;;;;-1.92;100.00;103083.78;5323771;28;20085;-84
2022/01/11 05:33:41;;;;;;;104.47;37.08;;;;;;;-1.91;100.00;103088.16;5323727;28;20039;-83
2022/01/11 05:36:12;;;;;;;105.15;36.58;;;;;;;-2.00;100.00;103082.09;5305445;28;20050;-84
2022/01/11 05:38:44;;;;;;;104.70;36.85;;;;;;;-1.98;100.00;103098.63;5323868;28;20508;-83
2022/01/11 05:41:15;;;;;;;103.18;35.50;;;;;;;-2.04;100.00;103086.47;5323764;28;20500;-84
2022/01/11 05:43:47;;;;;;;103.88;36.78;;;;;;;-1.95;100.00;103088.16;5320959;28;20024;-83
2022/01/11 05:46:18;;;;;;;116.47;39.58;;;;;;;-1.84;100.00;103095.97;5323554;28;20024;-83
2022/01/11 05:48:49;;;;;;;111.95;35.58;;;;;;;-1.89;100.00;103090.78;5320433;28;20042;-84
2022/01/11 05:51:21;;;;;;;106.00;35.92;;;;;;;-1.74;100.00;103105.50;5319150;28;20032;-84
2022/01/11 05:53:53;;;;;;;117.90;35.45;;;;;;;-1.72;100.00;103109.88;5324207;27;20393;-84
2022/01/11 05:56:24;;;;;;;113.20;38.15;;;;;;;-1.81;100.00;103104.66;5323530;28;20027;-82
2022/01/11 05:58:55;;;;;;;113.60;38.78;;;;;;;-1.90;100.00;103108.19;5321471;28;20437;-83
2022/01/11 06:01:27;;;;;;;115.82;35.85;;;;;;;-1.91;100.00;103105.63;5321606;28;20028;-83
2022/01/11 06:03:58;;;;;;;102.88;38.55;;;;;;;-1.92;100.00;103122.16;5319026;27;20105;-84
2022/01/11 06:06:29;;;;;;;108.97;35.78;;;;;;;-1.95;100.00;103122.19;5322868;28;20024;-84
2022/01/11 06:09:02;;;;;;;108.45;34.67;;;;;;;-1.97;100.00;103129.16;5322252;28;20139;-84
2022/01/11 06:11:34;;;;;;;103.05;36.17;;;;;;;-1.95;100.00;103141.34;5323737;28;20028;-84
2022/01/11 06:14:05;;;;;;;102.97;33.38;;;;;;;-2.04;100.00;103143.16;5304527;28;20071;-83
2022/01/11 06:16:37;;;;;;;103.47;37.97;;;;;;;-2.00;100.00;103144.88;5321560;28;20044;-84
2022/01/11 06:19:08;;;;;;;98.40;34.25;;;;;;;-2.00;100.00;103153.59;5324288;28;20062;-85
2022/01/11 06:21:39;;;;;;;100.20;35.13;;;;;;;-2.05;100.00;103144.91;5324520;28;20015;-83
2022/01/11 06:24:11;;;;;;;91.10;35.15;;;;;;;-2.02;100.00;103155.31;5328610;28;20035;-82
2022/01/11 06:26:42;;;;;;;95.43;34.03;;;;;;;-2.08;100.00;103159.72;5324895;28;20498;-85
2022/01/11 06:29:14;;;;;;;83.78;31.17;;;;;;;-2.10;100.00;103170.19;5324890;27;20031;-84
2022/01/11 06:31:45;;;;;;;91.93;32.90;;;;;;;-2.20;100.00;103158.00;5323344;28;20020;-84
2022/01/11 06:34:19;;;;;;;92.22;32.08;;;;;;;-2.27;100.00;103159.75;5331169;28;20058;-84
2022/01/11 06:36:50;;;;;;;84.63;31.08;;;;;;;-2.29;100.00;103162.38;5329500;28;20081;-84
2022/01/11 06:39:21;;;;;;;85.55;30.77;;;;;;;-2.36;100.00;103168.50;5330254;28;20028;-85
2022/01/11 06:41:52;;;;;;;93.13;31.27;;;;;;;-2.38;100.00;103153.69;5310798;28;20063;-84
2022/01/11 06:44:24;;;;;;;92.10;31.23;;;;;;;-2.35;100.00;103161.50;5329201;28;20418;-84
2022/01/11 06:46:55;;;;;;;89.65;31.95;;;;;;;-2.32;100.00;103175.44;5326846;28;41999;-85
2022/01/11 06:49:26;;;;;;;93.40;32.25;;;;;;;-2.30;100.00;103167.59;5332206;28;20024;-84
2022/01/11 06:51:58;;;;;;;94.57;32.25;;;;;;;-2.24;100.00;103179.78;5329629;28;20042;-84
2022/01/11 06:54:29;;;;;;;90.72;33.03;;;;;;;-2.22;100.00;103184.16;5336017;28;20107;-85
2022/01/11 06:57:01;;;;;;;87.68;32.78;;;;;;;-2.29;100.00;103174.59;5340039;28;20051;-84
2022/01/11 06:59:32;;;;;;;94.15;32.53;;;;;;;-2.33;100.00;103171.09;5341971;28;20040;-84
2022/01/11 07:02:04;;;;;;;88.40;33.83;;;;;;;-2.24;100.00;103177.16;5340323;28;20055;-84
2022/01/11 07:04:37;;;;;;;85.38;29.95;;;;;;;-2.31;100.00;103169.34;5339027;27;20075;-83
2022/01/11 07:07:08;;;;;;;85.32;31.05;;;;;;;-2.33;100.00;103176.34;5337782;28;20028;-84
2022/01/11 07:09:40;;;;;;;88.38;31.83;;;;;;;-2.32;100.00;103177.19;5336650;27;20373;-84
2022/01/11 07:12:11;;;;;;;86.22;31.33;;;;;;;-2.30;100.00;103184.19;5330319;28;20392;-84
2022/01/11 07:14:42;;;;;;;89.15;32.33;;;;;;;-2.35;100.00;103167.63;5329892;28;20054;-83
2022/01/11 07:17:15;;;;;;;87.75;31.67;;;;;;;-2.27;100.00;103193.75;5329401;28;20074;-84
2022/01/11 07:19:46;;;;;;;85.60;31.42;;;;;;;-2.33;100.00;103189.41;5309528;28;20032;-84
2022/01/11 07:22:17;;;;;;;92.40;33.40;;;;;;;-2.35;100.00;103191.16;5328240;28;20042;-82
2022/01/11 07:24:49;;;;;;;83.10;32.22;;;;;;;-2.34;100.00;103200.72;5326975;28;20024;-84
2022/01/11 07:27:20;;;;;;;88.32;33.47;;;;;;;-2.36;100.00;103199.84;5327746;28;20447;-84
2022/01/11 07:29:52;;;;;;;100.13;34.83;;;;;;;-2.29;100.00;103213.81;5329266;28;20462;-84
2022/01/11 07:32:23;;;;;;;92.63;34.40;;;;;;;-2.33;100.00;103206.81;5328811;28;20050;-84
2022/01/11 07:34:54;;;;;;;99.05;35.88;;;;;;;-2.24;100.00;103209.44;5329989;28;20024;-83
2022/01/11 07:37:26;;;;;;;95.60;34.80;;;;;;;-2.28;100.00;103211.19;5328579;28;20024;-82
2022/01/11 07:39:57;;;;;;;97.47;35.92;;;;;;;-2.24;100.00;103225.13;5330048;28;20056;-82
2022/01/11 07:42:29;;;;;;;85.07;32.92;;;;;;;-2.24;100.00;103224.22;5329875;28;20024;-83
2022/01/11 07:45:00;;;;;;;92.05;32.55;;;;;;;-2.21;100.00;103232.09;5329769;27;20024;-83
2022/01/11 07:47:31;;;;;;;89.28;35.33;;;;;;;-2.17;100.00;103234.69;5327148;28;20028;-83
2022/01/11 07:50:03;;;;;;;88.10;33.55;;;;;;;-2.13;100.00;103235.56;5330431;28;20368;-83
2022/01/11 07:52:35;;;;;;;89.45;32.67;;;;;;;-2.12;100.00;103225.13;5329487;28;20020;-83
2022/01/11 07:55:07;;;;;;;90.32;33.90;;;;;;;-2.05;100.00;103232.94;5310331;28;20067;-82
2022/01/11 07:57:39;;;;;;;83.65;34.10;;;;;;;-1.98;100.00;103226.81;5306516;28;20021;-82
2022/01/11 08:00:10;;;;;;;86.85;33.17;;;;;;;-1.94;100.00;103229.44;5290115;28;20082;-83
2022/01/11 08:02:42;;;;;;;78.82;31.17;;;;;;;-1.92;100.00;103229.44;5320742;28;20058;-83
2022/01/11 08:05:15;;;;;;;74.75;35.92;;;;;;;-1.82;100.00;103225.03;5328949;27;20387;-83
2022/01/11 08:07:47;;;;;;;77.03;33.58;;;;;;;-1.75;100.00;103230.25;5326854;28;20031;-83
2022/01/11 08:10:18;;;;;;;70.70;29.80;;;;;;;-1.76;100.00;103214.56;5328984;28;20118;-83
2022/01/11 08:12:50;;;;;;;65.13;28.40;;;;;;;-1.66;100.00;103226.75;5327144;28;20020;-83
2022/01/11 08:15:22;;;;;;;66.75;30.58;;;;;;;-1.59;100.00;103230.22;5326870;28;20031;-84
2022/01/11 08:17:53;;;;;;;62.17;27.30;;;;;;;-1.56;100.00;103220.59;5327048;28;20024;-83
2022/01/11 08:20:25;;;;;;;61.78;28.25;;;;;;;-1.41;100.00;103222.28;5309236;28;20017;-83
2022/01/11 08:22:57;;;;;;;65.25;28.75;;;;;;;-1.28;100.00;103233.56;5327003;28;20439;-83
2022/01/11 08:25:28;;;;;;;64.80;28.83;;;;;;;-1.17;100.00;103244.00;5326666;28;20031;-84
2022/01/11 08:28:00;;;;;;;59.42;29.13;;;;;;;-1.15;100.00;103226.50;5308582;28;20460;-83
2022/01/11 08:30:32;;;;;;;54.38;26.33;;;;;;;-0.97;100.00;103226.38;5308213;28;20034;-83
2022/01/11 08:33:04;;;;;;;50.45;25.25;;;;;;;-0.79;100.00;103227.16;5326542;28;20016;-81
2022/01/11 08:35:35;;;;;;;50.47;26.33;;;;;;;-0.73;100.00;103223.63;5326802;28;20073;-81
2022/01/11 08:38:07;;;;;;;50.28;24.92;;;;;;;-0.52;100.00;103235.72;5326437;28;20028;-83
2022/01/11 08:40:38;;;;;;;45.15;22.90;;;;;;;-0.51;100.00;103217.31;5326599;28;20116;-83
2022/01/11 08:43:09;;;;;;;43.90;22.65;;;;;;;-0.36;100.00;103221.59;5307818;28;20157;-84
2022/01/11 08:45:41;;;;;;;42.75;21.70;;;;;;;-0.34;100.00;103224.19;5326549;28;20020;-84
2022/01/11 08:48:12;;;;;;;39.92;23.27;;;;;;;-0.23;100.00;103225.84;5317834;28;20032;-84
2022/01/11 08:50:44;;;;;;;43.40;24.17;;;;;;;-0.14;100.00;103230.13;5326140;28;20092;-83
2022/01/11 08:53:15;;;;;;;42.80;23.77;;;;;;;-0.03;100.00;103227.41;5325593;28;20020;-83
2022/01/11 08:55:48;;;;;;;39.17;20.25;;;;;;;0.09;100.00;103222.03;5325414;27;20012;-84
2022/01/11 08:58:20;;;;;;;36.75;21.15;;;;;;;0.18;100.00;103227.16;5326028;28;20224;-84
2022/01/11 09:00:52;;;;;;;39.13;20.85;;;;;;;0.26;100.00;103231.44;5326365;28;20023;-83
2022/01/11 09:03:23;;;;;;;35.60;20.45;;;;;;;0.20;100.00;103221.91;5326095;28;20024;-84
2022/01/11 09:05:54;;;;;;;35.38;19.40;;;;;;;0.29;100.00;103247.19;5325521;27;20036;-84
2022/01/11 09:08:26;;;;;;;35.17;19.48;;;;;;;0.26;100.00;103244.56;5325662;28;20095;-84
2022/01/11 09:10:57;;;;;;;29.55;18.92;;;;;;;0.23;100.00;103237.63;5326036;28;20479;-84
2022/01/11 09:13:29;;;;;;;32.97;19.45;;;;;;;0.35;100.00;103241.84;5325854;28;20016;-84
2022/01/11 09:16:00;;;;;;;38.92;21.88;;;;;;;0.35;100.00;103237.47;5306782;28;20012;-84
2022/01/11 09:18:32;;;;;;;33.55;19.23;;;;;;;0.39;100.00;103235.69;5325927;28;20468;-84
2022/01/11 09:21:04;;;;;;;32.05;19.65;;;;;;;0.55;100.00;103257.38;5326109;28;20024;-82
2022/01/11 09:23:36;;;;;;;32.03;19.08;;;;;;;0.59;100.00;103242.47;5307368;28;20027;-83
2022/01/11 09:26:07;;;;;;;30.85;19.27;;;;;;;0.70;100.00;103237.91;5326532;28;20016;-83
2022/01/11 09:28:40;;;;;;;32.22;19.65;;;;;;;0.79;100.00;103247.44;5325490;28;20024;-83
2022/01/11 09:31:11;;;;;;;32.60;18.52;;;;;;;0.94;100.00;103248.09;5325011;28;20039;-83
2022/01/11 09:33:43;;;;;;;25.15;16.45;;;;;;;1.01;100.00;103250.66;5325687;28;20020;-83
2022/01/11 09:36:14;;;;;;;27.70;18.23;;;;;;;0.96;100.00;103248.09;5319841;28;20179;-84
2022/01/11 09:38:45;;;;;;;29.77;18.10;;;;;;;0.97;100.00;103248.97;5286272;28;20044;-83
2022/01/11 09:41:17;;;;;;;28.05;18.58;;;;;;;1.08;100.00;103253.16;5303670;28;20020;-83
2022/01/11 09:43:48;;;;;;;28.13;16.48;;;;;;;1.31;100.00;103255.47;5304333;28;20132;-83
2022/01/11 09:46:20;;;;;;;33.50;18.02;;;;;;;1.48;100.00;103264.84;5312249;28;20418;-83
2022/01/11 09:48:52;;;;;;;28.67;17.25;;;;;;;1.59;100.00;103264.69;5325161;28;20020;-84
2022/01/11 09:51:23;;;;;;;29.73;17.38;;;;;;;1.64;100.00;103268.09;5325327;28;20035;-83
2022/01/11 09:53:54;;;;;;;25.05;15.40;;;;;;;1.68;100.00;103249.63;5325176;28;20017;-84
2022/01/11 09:56:26;;;;;;;25.80;16.05;;;;;;;1.75;100.00;103267.91;5325225;28;20047;-83
2022/01/11 09:58:57;;;;;;;23.38;15.27;;;;;;;1.82;100.00;103265.19;5325283;28;20394;-83
2022/01/11 10:01:28;;;;;;;25.73;15.43;;;;;;;1.75;100.00;103266.16;5324088;28;20024;-83
2022/01/11 10:04:03;;;;;;;24.67;15.73;;;;;;;1.81;100.00;103267.84;5304859;28;20013;-83
2022/01/11 10:06:37;;;;;;;23.98;14.50;;;;;;;1.96;100.00;103274.56;5311499;28;20020;-82
2022/01/11 10:09:18;;;;;;;24.33;15.80;;;;;;;2.04;100.00;103270.06;5331063;28;20075;-84
2022/01/11 10:11:52;;;;;;;24.52;14.85;;;;;;;2.15;100.00;103269.84;5314144;28;20032;-84
2022/01/11 10:14:31;;;;;;;22.90;14.40;;;;;;;2.19;100.00;103266.25;5332119;28;20020;-83
2022/01/11 10:17:08;;;;;;;19.95;13.77;;;;;;;2.22;100.00;103267.06;5331588;28;20538;-84
2022/01/11 10:19:42;;;;;;;23.45;13.70;;;;;;;2.33;100.00;103277.44;5313012;28;20146;-84
2022/01/11 10:22:17;;;;;;;21.83;13.55;;;;;;;2.34;100.00;103273.00;5329561;28;20016;-85
2022/01/11 10:24:54;;;;;;;25.13;13.38;;;;;;;2.57;100.00;103273.41;5310613;28;20103;-85
2022/01/11 10:27:31;;;;;;;22.60;14.13;;;;;;;2.57;100.00;103281.31;5327309;28;20073;-85
2022/01/11 10:30:05;;;;;;;;;;;;;;;2.78;100.00;103269.47;5327667;28;20059;-84
2022/01/11 10:32:39;;;;;;;20.02;12.70;;;;;;;2.61;100.00;103255.78;5325925;28;20419;-84
2022/01/11 10:35:23;;;;;;;20.88;13.30;;;;;;;2.69;100.00;103266.16;5309878;28;20043;-84
2022/01/11 10:37:59;;;;;;;22.40;13.82;;;;;;;2.74;100.00;103270.44;5326285;28;20020;-84
2022/01/11 10:40:40;;;;;;;23.67;14.43;;;;;;;2.80;100.00;103269.44;5327213;28;20474;-84
2022/01/11 10:43:15;;;;;;;23.80;14.18;;;;;;;2.85;100.00;103275.47;5327105;28;20519;-83
2022/01/11 10:45:49;;;;;;;22.80;13.27;;;;;;;2.90;100.00;103256.94;5306620;28;20027;-83
2022/01/11 10:48:23;;;;;;;20.13;13.30;;;;;;;2.89;100.00;103278.91;5307494;28;20086;-83
2022/01/11 10:50:59;;;;;;;19.45;13.52;;;;;;;2.82;100.00;103263.25;5325091;28;20027;-84
2022/01/11 10:53:39;;;;;;;18.52;12.20;;;;;;;3.01;100.00;103268.09;5323996;28;20031;-84
2022/01/11 10:56:11;;;;;;;20.25;13.80;;;;;;;3.13;100.00;103267.81;5324360;28;20020;-84
2022/01/11 10:59:03;;;;;;;19.35;12.40;;;;;;;3.34;100.00;103278.78;5325427;28;20499;-83
2022/01/11 11:01:35;;;;;;;18.70;12.27;;;;;;;3.29;100.00;103268.34;5305771;28;20012;-84
2022/01/11 11:04:33;;;;;;;24.40;14.27;;;;;;;3.28;100.00;103271.91;5325090;27;20031;-83
2022/01/11 11:07:15;;;;;;;22.48;13.15;;;;;;;3.30;100.00;103269.22;5322959;28;20070;-84
2022/01/11 11:09:50;;;;;;;22.00;13.30;;;;;;;3.22;100.00;103272.88;5303993;28;20102;-84
2022/01/11 11:12:23;;;;;;;21.58;12.73;;;;;;;3.28;100.00;103276.28;5306604;28;20024;-84
2022/01/11 11:14:56;;;;;;;18.33;12.32;;;;;;;3.31;100.00;103274.44;5326700;28;20440;-83
2022/01/11 11:17:31;;;;;;;19.23;12.75;;;;;;;3.29;100.00;103264.84;5325163;28;20118;-84
2022/01/11 11:20:08;;;;;;;19.25;12.88;;;;;;;3.26;100.00;103263.16;5327540;28;20446;-83
2022/01/11 11:22:42;;;;;;;17.55;12.57;;;;;;;3.35;100.00;103277.91;5310507;28;20107;-84
2022/01/11 11:25:13;;;;;;;18.58;12.55;;;;;;;3.40;100.00;103284.81;5329225;28;20380;-83
2022/01/11 11:27:45;;;;;;;20.67;11.30;;;;;;;3.56;100.00;103266.81;5328727;28;20031;-83